Terminal Aerodrome Forecast
Issued by NWS

Home | Current Version | Previous Version | Text Only | Print | Product List | Glossary On
Versions: 1 2 3 4 5 6 7 8 9 10 11 12 13
145
FTUS46 KMTR 302321
TAFSJC
TAF
KSJC 302321Z 3100/3124 30015G23KT P6SM FEW040 FEW150
     FM310400 31013KT P6SM FEW040 FEW150
     FM310800 31009KT P6SM FEW020
     FM311200 30012KT P6SM SKC
     FM311800 31015G23KT P6SM FEW250
     FM312300 31015G25KT P6SM FEW250=

USA.gov is the U.S. government's official web portal to all federal, state and local government web resources and services.